Lull, Texas
Current Conditions -  °F | °C
As of 5:27 AM on Friday 28 Nov 2014 (Local Time) from KMFE Reporting Station
Moderate Fog Moderate Fog  
Wind Chill: 51°   Ceiling: 100
Heat Index: 51°   Visibility: 0.25mi
Dew Point: 51°   Wind: 0mph
Humidity: 100%   Direction: NA
Pressure: 30.32"   Gusts: NA
Location:  26.2938°N, 98.1548°W
Report Text: KMFE 281127Z AUTO 00000KT 1/4SM FG VV001 11/11 A3032 RMK AO2 T01060106
Loading
Personal Weather Stations






























Interactive Weather Map New forecast layout! Learn more

10-Day Weather Forecast

Advertisements
Track Severe Weather on mobile